Time;durP1;ratioP1;P1;durP2;ratioP2;P2;SDS_P1;SDS_P2;PMS_P1;PMS_P2;Temp;Humidity;BMP_temperature;BMP_pressure;BME280_temperature;BME280_humidity;BME280_pressure;Samples;Min_cycle;Max_cycle;Signal;HPM_P1;HPM_P2
2022/03/18 00:00:20;;;;;;;17.17;8.10;;;;;;;2.53;94.60;103849.88;5073993;28;20569;-64
2022/03/18 00:02:50;;;;;;;16.08;8.60;;;;;;;2.50;94.50;103852.44;5074034;28;20110;-65
2022/03/18 00:05:18;;;;;;;16.40;7.82;;;;;;;2.43;95.14;103850.56;5073771;28;20506;-65
2022/03/18 00:07:48;;;;;;;16.67;7.00;;;;;;;2.37;95.44;103855.66;5073879;28;20047;-65
2022/03/18 00:10:18;;;;;;;15.30;7.53;;;;;;;2.32;96.06;103858.19;5073915;28;20091;-65
2022/03/18 00:12:47;;;;;;;14.88;7.13;;;;;;;2.25;96.80;103855.44;5073809;28;20048;-65
2022/03/18 00:15:16;;;;;;;15.70;7.30;;;;;;;2.19;97.73;103859.66;5073417;28;20049;-58
2022/03/18 00:17:45;;;;;;;14.60;6.82;;;;;;;2.24;98.04;103858.91;5072880;28;20082;-58
2022/03/18 00:20:14;;;;;;;14.52;6.00;;;;;;;2.34;96.78;103859.06;5073040;28;20056;-56
2022/03/18 00:22:45;;;;;;;13.70;6.75;;;;;;;2.28;96.55;103858.13;5073307;28;20128;-58
2022/03/18 00:25:14;;;;;;;15.77;6.45;;;;;;;2.19;98.12;103862.25;5073247;28;20045;-56
2022/03/18 00:27:44;;;;;;;10.88;5.53;;;;;;;2.19;98.56;103857.06;5073399;28;20498;-57
2022/03/18 00:30:14;;;;;;;15.60;6.40;;;;;;;2.22;98.66;103858.00;5073317;28;20056;-57
2022/03/18 00:32:43;;;;;;;12.98;7.30;;;;;;;2.14;98.50;103860.44;5073283;28;20058;-56
2022/03/18 00:35:31;;;;;;;15.43;6.65;;;;;;;2.06;98.25;103873.31;5073234;28;20040;-57
2022/03/18 00:38:02;;;;;;;14.80;5.20;;;;;;;2.11;97.47;103865.59;5073327;28;20483;-57
2022/03/18 00:40:31;;;;;;;14.18;5.82;;;;;;;2.06;98.12;103875.91;5072874;28;20048;-57
2022/03/18 00:43:03;;;;;;;10.10;5.30;;;;;;;2.15;97.06;103875.19;5073107;28;20055;-57
2022/03/18 00:45:33;;;;;;;13.57;6.22;;;;;;;2.10;97.64;103877.69;5072916;28;20055;-57
2022/03/18 00:53:32;;;;;;;12.70;4.50;;;;;;;1.99;96.62;103871.41;5072629;28;20044;-57
2022/03/18 00:56:00;;;;;;;9.88;4.45;;;;;;;1.98;96.82;103883.53;5072594;28;20044;-58
2022/03/18 00:58:30;;;;;;;13.70;5.25;;;;;;;1.97;98.20;103886.09;5072512;28;20047;-57
2022/03/18 01:00:58;;;;;;;10.50;4.68;;;;;;;1.95;99.08;103899.06;5072801;28;20052;-57
2022/03/18 01:03:26;;;;;;;12.85;4.40;;;;;;;1.99;98.82;103897.38;5071313;28;20049;-57
2022/03/18 01:05:55;;;;;;;14.65;4.85;;;;;;;1.99;98.86;103897.38;5070383;28;20063;-57
2022/03/18 01:08:23;;;;;;;12.80;4.60;;;;;;;1.95;98.57;103903.34;5072358;28;20560;-57
2022/03/18 01:10:52;;;;;;;9.15;4.53;;;;;;;1.93;98.39;103905.91;5072445;28;20044;-57
2022/03/18 01:13:20;;;;;;;13.45;4.20;;;;;;;1.88;99.52;103910.13;5072290;28;20365;-57
2022/03/18 01:15:50;;;;;;;10.52;4.70;;;;;;;1.83;100.00;103911.78;5072268;28;20365;-57
2022/03/18 01:18:18;;;;;;;11.65;4.50;;;;;;;1.86;99.61;103917.88;5072122;28;20056;-57
2022/03/18 01:20:46;;;;;;;12.00;4.28;;;;;;;1.80;99.95;103911.69;5072845;28;20049;-57
2022/03/18 01:23:15;;;;;;;12.98;4.13;;;;;;;1.73;100.00;103907.22;5072396;28;20395;-57
2022/03/18 01:25:43;;;;;;;12.35;4.50;;;;;;;1.75;100.00;103913.34;5072281;28;20395;-57
2022/03/18 01:28:11;;;;;;;9.98;3.55;;;;;;;1.66;100.00;103909.72;5072108;28;20090;-57
2022/03/18 01:30:39;;;;;;;16.67;4.10;;;;;;;1.68;100.00;103912.34;5071951;28;20044;-57
2022/03/18 01:33:09;;;;;;;13.35;3.92;;;;;;;1.66;100.00;103908.81;5072180;28;20047;-57
2022/03/18 01:35:37;;;;;;;11.93;4.20;;;;;;;1.63;100.00;103907.03;5072487;28;20046;-58
2022/03/18 01:38:06;;;;;;;9.07;3.35;;;;;;;1.58;100.00;103916.47;5072121;28;20384;-57
2022/03/18 01:40:34;;;;;;;13.68;4.00;;;;;;;1.58;99.25;103908.69;5070961;28;20044;-57
2022/03/18 01:43:02;;;;;;;14.10;4.03;;;;;;;1.52;100.00;103911.97;5072034;28;20037;-57
2022/03/18 01:45:30;;;;;;;9.38;3.67;;;;;;;1.53;100.00;103918.06;5071636;28;20048;-58
2022/03/18 01:47:58;;;;;;;11.05;3.60;;;;;;;1.49;100.00;103922.31;5071902;28;20454;-57
2022/03/18 01:50:28;;;;;;;11.52;3.75;;;;;;;1.54;100.00;103921.53;5072062;28;20044;-57
2022/03/18 01:52:56;;;;;;;11.52;3.78;;;;;;;1.50;100.00;103916.28;5071926;28;20102;-56
2022/03/18 01:55:25;;;;;;;15.23;3.92;;;;;;;1.63;99.81;103913.94;5072269;28;20059;-56
2022/03/18 01:57:54;;;;;;;13.10;4.47;;;;;;;1.51;100.00;103911.97;5071829;28;20041;-57
2022/03/18 02:00:22;;;;;;;12.95;3.97;;;;;;;1.49;99.37;103909.34;5071898;28;20041;-57
2022/03/18 02:02:50;;;;;;;11.60;3.75;;;;;;;1.40;100.00;103905.66;5071647;28;20056;-57
2022/03/18 02:05:18;;;;;;;11.60;4.10;;;;;;;1.40;100.00;103895.28;5071742;28;20052;-57
2022/03/18 02:07:48;;;;;;;11.20;4.40;;;;;;;1.30;100.00;103905.44;5071700;28;20041;-57
2022/03/18 02:10:17;;;;;;;9.38;4.28;;;;;;;1.37;99.55;103909.06;5071734;28;20083;-57
2022/03/18 02:12:46;;;;;;;14.73;4.25;;;;;;;1.31;100.00;103915.00;5071851;28;20094;-57
2022/03/18 02:15:20;;;;;;;8.82;3.90;;;;;;;1.29;99.62;103919.25;5070491;28;20128;-57
2022/03/18 02:17:48;;;;;;;11.05;3.65;;;;;;;1.25;100.00;103919.16;5072782;28;20048;-57
2022/03/18 02:20:16;;;;;;;14.07;4.10;;;;;;;1.24;100.00;103923.47;5075776;28;20048;-57
2022/03/18 02:22:46;;;;;;;11.50;4.18;;;;;;;1.24;100.00;103927.78;5075708;28;20064;-57
2022/03/18 02:25:14;;;;;;;10.68;3.63;;;;;;;1.24;100.00;103933.84;5075630;28;20098;-57
2022/03/18 02:27:55;;;;;;;11.07;4.03;;;;;;;1.24;100.00;103938.16;5075766;28;20040;-57
2022/03/18 02:30:24;;;;;;;10.88;4.03;;;;;;;1.14;100.00;103932.72;5075568;28;20384;-58
2022/03/18 02:32:52;;;;;;;8.70;4.03;;;;;;;1.07;100.00;103932.56;5075710;28;20553;-58
2022/03/18 02:35:20;;;;;;;12.02;3.97;;;;;;;1.07;100.00;103941.22;5075204;28;20526;-57
2022/03/18 02:37:50;;;;;;;11.25;3.60;;;;;;;1.10;100.00;103940.41;5075268;28;20049;-57
2022/03/18 02:40:18;;;;;;;14.48;3.85;;;;;;;1.03;100.00;103941.97;5075484;28;20071;-57
2022/03/18 02:42:46;;;;;;;14.73;4.13;;;;;;;1.17;100.00;103943.19;5075307;28;20047;-58
2022/03/18 02:45:14;;;;;;;12.40;3.58;;;;;;;1.15;100.00;103944.00;5074651;28;20056;-57
2022/03/18 02:47:42;;;;;;;10.60;4.18;;;;;;;1.12;100.00;103944.81;5074398;28;20125;-57
2022/03/18 02:50:11;;;;;;;8.20;3.28;;;;;;;1.17;100.00;103937.13;5075101;28;20044;-58
2022/03/18 02:52:39;;;;;;;9.45;3.55;;;;;;;1.15;100.00;103946.59;5075223;28;20125;-57
2022/03/18 02:55:09;;;;;;;9.82;3.60;;;;;;;1.09;100.00;103943.84;5075267;28;20491;-57
2022/03/18 02:57:38;;;;;;;7.18;3.28;;;;;;;1.08;100.00;103936.91;5075103;28;20049;-57
2022/03/18 03:00:07;;;;;;;8.07;3.10;;;;;;;1.01;100.00;103944.53;5074923;28;20070;-57
2022/03/18 03:02:36;;;;;;;10.57;3.17;;;;;;;1.12;100.00;103944.81;5075175;28;20049;-57
2022/03/18 03:08:02;;;;;;;10.93;3.00;;;;;;;0.94;100.00;103932.28;5074751;28;20052;-57
2022/03/18 03:10:34;;;;;;;12.48;3.10;;;;;;;0.92;100.00;103935.66;5074632;28;20525;-57
2022/03/18 03:13:06;;;;;;;12.57;3.95;;;;;;;0.83;100.00;103944.06;5075078;28;20044;-57
2022/03/18 03:15:34;;;;;;;8.43;3.08;;;;;;;0.85;100.00;103945.00;5074775;28;20123;-57
2022/03/18 03:18:03;;;;;;;10.68;3.40;;;;;;;0.83;100.00;103954.44;5074611;28;20052;-58
2022/03/18 03:20:31;;;;;;;10.00;2.85;;;;;;;0.89;100.00;103953.75;5074524;28;20056;-57
2022/03/18 03:23:01;;;;;;;14.10;3.38;;;;;;;0.87;100.00;103955.41;5074712;28;20143;-57
2022/03/18 03:25:29;;;;;;;9.38;3.83;;;;;;;0.82;100.00;103956.16;5074394;28;20044;-57
2022/03/18 03:27:58;;;;;;;11.57;3.28;;;;;;;0.79;100.00;103961.28;5074559;28;20365;-58
2022/03/18 03:30:27;;;;;;;8.73;3.45;;;;;;;0.79;100.00;103958.69;5073370;28;20106;-58
2022/03/18 03:32:55;;;;;;;10.98;3.35;;;;;;;0.83;100.00;103965.69;5074583;28;20044;-57
2022/03/18 03:35:23;;;;;;;9.75;3.42;;;;;;;0.75;100.00;103967.22;5074482;28;20052;-58
2022/03/18 03:37:51;;;;;;;10.90;3.33;;;;;;;0.87;100.00;103970.94;5074312;28;20041;-58
2022/03/18 03:40:19;;;;;;;7.30;3.05;;;;;;;0.89;100.00;103972.75;5074354;28;20067;-57
2022/03/18 03:42:47;;;;;;;7.07;3.10;;;;;;;0.93;100.00;103976.31;5074254;28;20044;-57
2022/03/18 03:45:17;;;;;;;9.43;3.08;;;;;;;0.86;100.00;103987.31;5074099;28;20048;-57
2022/03/18 03:47:45;;;;;;;8.73;2.97;;;;;;;0.83;100.00;103993.31;5073952;28;20060;-57
2022/03/18 03:50:14;;;;;;;10.18;2.97;;;;;;;0.75;100.00;103985.34;5074132;28;20506;-58
2022/03/18 03:52:42;;;;;;;9.00;3.60;;;;;;;0.70;100.00;103992.13;5074166;28;20090;-57
2022/03/18 03:55:12;;;;;;;6.97;3.08;;;;;;;0.57;100.00;103975.34;5074089;28;20048;-57
2022/03/18 03:57:40;;;;;;;8.82;3.40;;;;;;;0.63;100.00;103990.22;5073336;28;20185;-57
2022/03/18 04:00:10;;;;;;;10.95;3.35;;;;;;;0.65;100.00;103999.75;5073718;28;20102;-57
2022/03/18 04:02:41;;;;;;;13.40;3.10;;;;;;;0.80;100.00;104006.19;5074100;28;20131;-57
2022/03/18 04:05:11;;;;;;;10.05;3.28;;;;;;;0.77;100.00;104004.41;5074052;28;20526;-57
2022/03/18 04:07:40;;;;;;;8.93;3.50;;;;;;;0.80;100.00;104007.06;5074227;28;20533;-57
2022/03/18 04:10:10;;;;;;;9.50;3.25;;;;;;;0.74;100.00;104011.22;5073632;28;20045;-58
2022/03/18 04:12:39;;;;;;;7.75;2.92;;;;;;;0.70;100.00;104007.66;5073617;28;20530;-57
2022/03/18 04:15:09;;;;;;;8.85;3.20;;;;;;;0.64;100.00;104013.56;5073872;28;20051;-57
2022/03/18 04:17:41;;;;;;;14.45;2.80;;;;;;;0.60;100.00;104009.13;5073615;28;20441;-58
2022/03/18 04:20:11;;;;;;;7.67;3.43;;;;;;;0.58;100.00;104020.28;5073062;28;20044;-58
2022/03/18 04:22:40;;;;;;;7.88;2.90;;;;;;;0.56;100.00;104022.84;5072976;28;20048;-57
2022/03/18 04:25:09;;;;;;;9.18;3.05;;;;;;;0.52;100.00;104027.88;5072866;28;20116;-57
2022/03/18 04:27:39;;;;;;;11.48;2.92;;;;;;;0.57;100.00;104026.28;5072966;28;20052;-57
2022/03/18 04:30:10;;;;;;;8.48;3.00;;;;;;;0.56;100.00;104024.53;5073088;28;20491;-57
2022/03/18 04:32:41;;;;;;;9.43;2.95;;;;;;;0.56;100.00;104021.94;5073128;28;20053;-58
2022/03/18 04:35:10;;;;;;;8.25;3.03;;;;;;;0.56;100.00;104027.13;5073070;28;20059;-58
2022/03/18 04:37:40;;;;;;;11.65;3.03;;;;;;;0.46;100.00;104018.22;5073039;28;20052;-57
2022/03/18 04:40:09;;;;;;;19.08;4.57;;;;;;;0.45;100.00;104032.91;5073208;28;20140;-58
2022/03/18 04:42:38;;;;;;;8.82;3.10;;;;;;;0.47;100.00;104031.22;5072546;28;20076;-57
2022/03/18 04:45:07;;;;;;;10.35;3.13;;;;;;;0.54;100.00;104039.16;5071714;28;20056;-56
2022/03/18 04:47:36;;;;;;;9.25;3.70;;;;;;;0.47;100.00;104033.81;5072735;28;20052;-57
2022/03/18 04:50:07;;;;;;;7.32;3.15;;;;;;;0.43;100.00;104044.91;5072813;28;20055;-57
2022/03/18 04:52:35;;;;;;;8.85;2.92;;;;;;;0.43;100.00;104039.72;5072710;28;20044;-57
2022/03/18 04:55:03;;;;;;;9.70;3.17;;;;;;;0.41;100.00;104045.69;5072822;28;20557;-57
2022/03/18 04:57:32;;;;;;;9.52;2.83;;;;;;;0.48;100.00;104047.66;5072774;28;20541;-57
2022/03/18 05:00:00;;;;;;;10.73;3.50;;;;;;;0.39;100.00;104048.25;5072449;28;20498;-57
2022/03/18 05:02:28;;;;;;;10.05;3.28;;;;;;;0.35;100.00;104053.31;5072452;28;20136;-57
2022/03/18 05:04:57;;;;;;;9.57;3.30;;;;;;;0.33;100.00;104054.13;5072297;28;20049;-57
2022/03/18 05:07:26;;;;;;;10.52;3.30;;;;;;;0.37;100.00;104062.88;5071951;28;20441;-57
2022/03/18 05:09:54;;;;;;;6.82;3.05;;;;;;;0.45;100.00;104063.97;5072380;28;20068;-57
2022/03/18 05:12:23;;;;;;;8.57;2.70;;;;;;;0.42;100.00;104058.69;5071257;28;20525;-57
2022/03/18 05:14:53;;;;;;;7.05;2.88;;;;;;;0.47;100.00;104066.59;5072358;28;20106;-57
2022/03/18 05:17:22;;;;;;;9.45;3.47;;;;;;;0.44;100.00;104076.88;5072631;28;20078;-57
2022/03/18 05:19:50;;;;;;;10.27;3.90;;;;;;;0.41;100.00;104080.25;5072150;28;20056;-58
2022/03/18 05:22:18;;;;;;;11.70;3.03;;;;;;;0.35;100.00;104087.84;5072295;28;20119;-57
2022/03/18 05:24:48;;;;;;;8.77;3.47;;;;;;;0.32;100.00;104085.16;5072378;28;20082;-57
2022/03/18 05:27:16;;;;;;;10.07;3.28;;;;;;;0.40;100.00;104082.81;5072389;28;20048;-57
2022/03/18 05:29:44;;;;;;;13.77;3.47;;;;;;;0.31;100.00;104097.25;5072374;28;20033;-65
2022/03/18 05:32:12;;;;;;;9.25;3.03;;;;;;;0.25;100.00;104085.81;5072592;28;20123;-65
2022/03/18 05:34:45;;;;;;;7.68;3.15;;;;;;;0.26;100.00;104084.97;5072298;28;20497;-65
2022/03/18 05:37:16;;;;;;;7.75;3.35;;;;;;;0.28;100.00;104098.84;5072195;28;20053;-57
2022/03/18 05:39:45;;;;;;;10.15;4.28;;;;;;;0.23;100.00;104105.59;5072037;28;20036;-57
2022/03/18 05:42:14;;;;;;;8.88;3.40;;;;;;;0.19;100.00;104101.16;5071895;28;20051;-58
2022/03/18 05:44:42;;;;;;;8.10;3.10;;;;;;;0.20;100.00;104105.50;5104388;28;20098;-58
2022/03/18 05:47:10;;;;;;;12.65;3.70;;;;;;;0.22;100.00;104109.91;5072074;28;20095;-58
2022/03/18 05:49:39;;;;;;;10.45;4.15;;;;;;;0.15;100.00;104111.44;5071159;28;20407;-58
2022/03/18 05:52:08;;;;;;;11.07;3.45;;;;;;;0.23;100.00;104096.13;5070961;28;20094;-57
2022/03/18 05:54:36;;;;;;;8.48;3.58;;;;;;;0.08;100.00;104106.00;5071853;28;20122;-58
2022/03/18 05:57:04;;;;;;;9.60;4.05;;;;;;;0.10;100.00;104113.00;5072133;28;20055;-58
2022/03/18 05:59:35;;;;;;;8.88;3.30;;;;;;;0.09;100.00;104116.41;5071683;28;20064;-58
2022/03/18 06:02:03;;;;;;;11.93;3.45;;;;;;;0.10;100.00;104115.56;5071858;28;20040;-58
2022/03/18 06:04:31;;;;;;;9.57;3.45;;;;;;;0.05;100.00;104135.25;5071860;28;20053;-58
2022/03/18 06:07:00;;;;;;;9.10;3.03;;;;;;;0.16;100.00;104133.00;5070233;28;20045;-58
2022/03/18 06:12:14;;;;;;;14.85;3.83;;;;;;;0.08;100.00;104125.03;5070258;28;20068;-58
2022/03/18 06:14:43;;;;;;;15.10;3.80;;;;;;;0.12;100.00;104129.47;5071977;28;20488;-58
2022/03/18 06:17:12;;;;;;;12.35;4.13;;;;;;;0.15;100.00;104137.31;5071579;28;20119;-58
2022/03/18 06:19:40;;;;;;;12.82;4.18;;;;;;;0.16;100.00;104133.00;5071582;28;20499;-58
2022/03/18 06:22:08;;;;;;;14.88;4.50;;;;;;;0.21;100.00;104140.94;5071407;28;20047;-58
2022/03/18 06:24:37;;;;;;;11.23;3.63;;;;;;;0.22;100.00;104150.44;5071199;28;20519;-58
2022/03/18 06:27:06;;;;;;;10.80;3.78;;;;;;;0.28;100.00;104153.22;5071903;28;20067;-57
2022/03/18 06:29:35;;;;;;;9.88;3.92;;;;;;;0.32;100.00;104155.09;5071798;28;20117;-65
2022/03/18 06:32:06;;;;;;;14.23;5.30;;;;;;;0.31;100.00;104155.91;5071461;28;20399;-65
2022/03/18 06:34:34;;;;;;;13.95;5.88;;;;;;;0.39;100.00;104154.44;5071654;28;20570;-65
2022/03/18 06:37:02;;;;;;;12.25;5.65;;;;;;;0.42;100.00;104162.28;5072047;28;20418;-65
2022/03/18 06:39:31;;;;;;;12.68;4.65;;;;;;;0.49;100.00;104168.53;5071595;28;20049;-65
2022/03/18 06:41:59;;;;;;;10.45;4.28;;;;;;;0.56;100.00;104160.13;5071584;28;20059;-65
2022/03/18 06:44:27;;;;;;;10.80;4.30;;;;;;;0.62;100.00;104170.66;5071516;28;20441;-65
2022/03/18 06:46:56;;;;;;;10.43;4.25;;;;;;;0.65;100.00;104154.34;5071428;28;20400;-65
2022/03/18 06:49:26;;;;;;;9.88;3.88;;;;;;;0.69;100.00;104156.19;5071466;28;20091;-65
2022/03/18 06:51:54;;;;;;;10.60;3.90;;;;;;;0.74;100.00;104170.16;5071561;28;20047;-65
2022/03/18 06:54:22;;;;;;;15.02;4.97;;;;;;;0.78;100.00;104172.00;5071679;28;20325;-65
2022/03/18 06:56:50;;;;;;;11.27;4.40;;;;;;;0.82;100.00;104183.34;5071610;28;20044;-58
2022/03/18 06:59:18;;;;;;;11.32;4.30;;;;;;;0.90;100.00;104187.03;5070199;28;20048;-65
2022/03/18 07:01:46;;;;;;;13.65;4.00;;;;;;;0.98;100.00;104184.63;5071357;28;20051;-65
2022/03/18 07:04:15;;;;;;;9.45;4.38;;;;;;;1.04;100.00;104178.75;5105602;28;20055;-64
2022/03/18 07:06:46;;;;;;;15.23;4.93;;;;;;;1.14;100.00;104176.47;5075063;28;20045;-58
2022/03/18 07:09:14;;;;;;;12.65;5.03;;;;;;;1.21;100.00;104189.59;5075128;28;20059;-58
2022/03/18 07:11:42;;;;;;;10.25;4.65;;;;;;;1.29;100.00;104188.09;5074682;28;20387;-58
2022/03/18 07:14:10;;;;;;;14.55;5.43;;;;;;;1.40;100.00;104191.84;5074681;28;20102;-58
2022/03/18 07:19:26;;;;;;;15.55;6.18;;;;;;;1.71;100.00;104197.84;5075191;28;20059;-58
2022/03/18 07:21:55;;;;;;;13.88;5.93;;;;;;;1.93;100.00;104195.81;5074703;28;20053;-58
2022/03/18 07:24:23;;;;;;;13.52;5.63;;;;;;;2.20;100.00;104195.59;5074788;28;20414;-58
2022/03/18 07:26:51;;;;;;;14.38;6.07;;;;;;;2.41;100.00;104209.91;5074574;28;20072;-58
2022/03/18 07:29:19;;;;;;;14.00;5.93;;;;;;;2.87;100.00;104209.19;5074874;28;20506;-58
2022/03/18 07:31:48;;;;;;;15.50;5.68;;;;;;;3.16;100.00;104221.94;5074067;28;20507;-58
2022/03/18 07:34:16;;;;;;;17.38;6.68;;;;;;;3.44;100.00;104225.06;5074458;28;20535;-59
2022/03/18 07:36:45;;;;;;;14.80;6.38;;;;;;;3.62;100.00;104221.06;5074678;28;20045;-58
2022/03/18 07:39:15;;;;;;;13.80;5.80;;;;;;;3.94;100.00;104226.84;5074526;28;20060;-58
2022/03/18 07:41:43;;;;;;;13.23;6.00;;;;;;;4.21;100.00;104223.81;5074402;28;20040;-58
2022/03/18 07:44:11;;;;;;;13.65;6.07;;;;;;;4.47;100.00;104227.63;5074277;28;20056;-59
2022/03/18 07:46:39;;;;;;;14.10;5.72;;;;;;;4.94;100.00;104224.81;5073899;28;20063;-58
2022/03/18 07:49:07;;;;;;;11.23;5.35;;;;;;;5.32;100.00;104228.72;5073528;28;20060;-58
2022/03/18 07:51:36;;;;;;;12.20;5.28;;;;;;;5.54;99.26;104227.22;5074399;28;20388;-58
2022/03/18 07:54:04;;;;;;;12.93;5.55;;;;;;;5.60;97.41;104224.66;5073951;28;20041;-58
2022/03/18 07:56:34;;;;;;;14.65;6.30;;;;;;;5.75;97.35;104221.31;5074083;28;20539;-59
2022/03/18 07:59:02;;;;;;;12.52;5.32;;;;;;;6.14;97.04;104222.53;5074057;28;20135;-59
2022/03/18 08:01:30;;;;;;;14.93;5.78;;;;;;;6.32;95.57;104220.94;5074067;28;20091;-63
2022/03/18 08:03:58;;;;;;;19.98;5.82;;;;;;;6.51;94.89;104224.53;5074091;28;20387;-63
2022/03/18 08:06:27;;;;;;;23.08;7.00;;;;;;;6.84;94.71;104229.06;5074228;28;20052;-63
2022/03/18 08:08:55;;;;;;;17.92;5.93;;;;;;;6.84;91.30;104234.28;5074060;28;20045;-63
2022/03/18 08:11:23;;;;;;;18.40;6.80;;;;;;;7.05;92.20;104235.28;5072666;28;20044;-61
2022/03/18 08:13:52;;;;;;;19.67;5.78;;;;;;;7.46;92.25;104247.59;5073697;28;20052;-64
2022/03/18 08:16:22;;;;;;;10.90;5.50;;;;;;;7.59;88.99;104248.50;5073296;28;20381;-63
2022/03/18 08:18:51;;;;;;;40.47;8.95;;;;;;;7.61;86.37;104245.00;5073554;28;20392;-64
2022/03/18 08:21:38;;;;;;;17.83;5.70;;;;;;;7.76;85.83;104253.78;5073652;28;20066;-64
2022/03/18 08:24:08;;;;;;;11.63;4.97;;;;;;;8.00;84.51;104263.38;5073343;28;20044;-63
2022/03/18 08:26:38;;;;;;;13.35;5.20;;;;;;;8.04;82.75;104259.88;5073525;28;20048;-63
2022/03/18 08:29:08;;;;;;;13.55;5.82;;;;;;;8.56;82.77;104253.75;5073501;28;20127;-64
2022/03/18 08:31:36;;;;;;;15.30;4.95;;;;;;;8.99;81.92;104265.00;5073491;28;20040;-64
2022/03/18 08:34:05;;;;;;;13.55;4.55;;;;;;;8.96;79.71;104264.13;5073303;28;20044;-64
2022/03/18 08:36:33;;;;;;;12.02;4.93;;;;;;;9.33;79.00;104267.47;5073275;28;20503;-64
2022/03/18 08:39:01;;;;;;;13.48;4.50;;;;;;;9.39;78.21;104277.94;5077683;28;20048;-64
2022/03/18 08:41:35;;;;;;;12.73;4.63;;;;;;;9.69;75.70;104276.00;5079826;28;20052;-64
2022/03/18 08:44:04;;;;;;;10.77;3.72;;;;;;;9.71;74.52;104282.13;5073214;28;20491;-64
2022/03/18 08:46:37;;;;;;;13.57;4.05;;;;;;;9.95;72.00;104287.22;5073155;28;20049;-64
2022/03/18 08:49:06;;;;;;;9.68;3.47;;;;;;;10.02;71.80;104289.78;5072844;28;20474;-64
2022/03/18 08:51:34;;;;;;;7.78;3.25;;;;;;;10.15;68.47;104288.78;5073448;28;20395;-65
2022/03/18 08:54:03;;;;;;;13.07;3.80;;;;;;;10.21;66.51;104299.28;5072987;28;20429;-65
2022/03/18 08:56:31;;;;;;;8.45;3.45;;;;;;;10.33;65.08;104295.66;5072737;28;20484;-64
2022/03/18 08:59:01;;;;;;;18.17;4.32;;;;;;;10.36;65.61;104293.03;5072603;28;20051;-64
2022/03/18 09:01:29;;;;;;;12.32;3.83;;;;;;;10.63;62.70;104299.78;5105090;28;20059;-64
2022/03/18 09:03:59;;;;;;;9.38;2.72;;;;;;;10.81;62.60;104308.34;5071640;28;20403;-65
2022/03/18 09:06:27;;;;;;;10.77;3.63;;;;;;;11.00;60.47;104298.47;5072645;28;20054;-65
2022/03/18 09:08:57;;;;;;;26.38;4.00;;;;;;;11.29;60.36;104307.81;5072423;28;20040;-65
2022/03/18 09:11:25;;;;;;;9.43;3.00;;;;;;;11.61;60.01;104317.88;5072122;28;20102;-65
2022/03/18 09:13:53;;;;;;;10.88;4.28;;;;;;;11.80;58.51;104320.25;5072220;28;20127;-65
2022/03/18 09:16:21;;;;;;;14.00;3.85;;;;;;;11.71;56.24;104318.63;5072632;28;20049;-64
2022/03/18 09:19:01;;;;;;;12.82;3.50;;;;;;;11.89;56.74;104324.50;5072400;28;20044;-64
2022/03/18 09:21:29;;;;;;;13.18;3.80;;;;;;;12.03;56.32;104319.94;5072404;28;20063;-65
2022/03/18 09:23:58;;;;;;;10.27;2.10;;;;;;;11.91;52.06;104320.94;5072653;28;20044;-65
2022/03/18 09:26:26;;;;;;;6.07;2.38;;;;;;;12.09;53.65;104319.84;5072252;28;20079;-65
2022/03/18 09:28:54;;;;;;;10.13;2.80;;;;;;;12.44;53.46;104318.34;5071845;28;20044;-64
2022/03/18 09:31:23;;;;;;;8.82;2.30;;;;;;;12.68;51.68;104314.38;5071958;28;20094;-64
2022/03/18 09:33:51;;;;;;;7.30;2.92;;;;;;;12.93;50.71;104316.53;5071991;28;20037;-64
2022/03/18 09:36:20;;;;;;;8.63;2.50;;;;;;;13.07;48.46;104312.75;5071999;28;20113;-64
2022/03/18 09:38:50;;;;;;;9.27;2.55;;;;;;;13.08;49.07;104318.00;5072217;28;20053;-65
2022/03/18 09:41:19;;;;;;;10.82;2.63;;;;;;;13.27;49.32;104318.50;5072454;28;20154;-64
2022/03/18 09:43:47;;;;;;;8.20;2.42;;;;;;;13.46;47.86;104323.41;5071954;28;20040;-64
2022/03/18 09:46:16;;;;;;;7.57;2.38;;;;;;;13.51;48.97;104330.34;5072176;28;20048;-64
2022/03/18 09:49:01;;;;;;;5.38;2.08;;;;;;;13.64;46.56;104333.56;5072119;28;20048;-65
2022/03/18 09:51:30;;;;;;;8.35;2.22;;;;;;;13.92;46.42;104343.50;5072099;28;20549;-65
2022/03/18 09:54:17;;;;;;;8.18;2.30;;;;;;;14.05;45.67;104348.50;5070451;28;20048;-65
2022/03/18 09:56:47;;;;;;;8.80;2.83;;;;;;;14.26;47.09;104341.78;5071776;28;20053;-65
2022/03/18 09:59:16;;;;;;;10.60;3.05;;;;;;;14.43;45.48;104346.69;5072023;28;20045;-65
2022/03/18 10:01:44;;;;;;;8.50;2.80;;;;;;;14.42;46.67;104345.78;5072074;28;20062;-65
2022/03/18 10:04:14;;;;;;;21.45;4.53;;;;;;;14.69;46.67;104343.34;5072111;28;20048;-65
2022/03/18 10:06:44;;;;;;;58.55;9.85;;;;;;;14.83;45.82;104342.97;5071887;28;20491;-66
2022/03/18 10:09:14;;;;;;;9.10;2.45;;;;;;;14.85;46.46;104343.81;5071869;28;20143;-65
2022/03/18 10:11:50;;;;;;;12.15;2.50;;;;;;;14.77;46.36;104353.75;5071864;28;20162;-65
2022/03/18 10:14:24;;;;;;;8.48;2.40;;;;;;;15.05;46.19;104345.88;5071828;28;20182;-66
2022/03/18 10:16:54;;;;;;;9.23;2.70;;;;;;;15.16;44.97;104345.56;5071995;28;20475;-65
2022/03/18 10:19:25;;;;;;;12.00;2.75;;;;;;;15.35;45.17;104353.84;5070522;28;20461;-65
2022/03/18 10:21:57;;;;;;;11.77;2.67;;;;;;;15.63;45.70;104356.53;5071910;28;20415;-57
2022/03/18 10:24:27;;;;;;;8.48;2.60;;;;;;;15.94;46.05;104358.25;5071675;28;20036;-58
2022/03/18 10:27:12;;;;;;;8.20;2.72;;;;;;;16.05;43.32;104352.59;5071668;28;20056;-58
2022/03/18 10:29:41;;;;;;;7.80;2.55;;;;;;;15.95;43.78;104354.69;5071255;28;20055;-57
2022/03/18 10:32:11;;;;;;;10.57;3.30;;;;;;;16.18;44.64;104351.25;5071379;28;20040;-58
2022/03/18 10:37:40;;;;;;;11.18;3.72;;;;;;;16.43;43.58;104353.06;5071640;28;20053;-57
2022/03/18 10:40:09;;;;;;;7.95;2.67;;;;;;;16.69;43.24;104354.81;5074918;28;20048;-58
2022/03/18 10:42:37;;;;;;;9.88;2.75;;;;;;;16.86;42.42;104351.53;5075269;28;20068;-58
2022/03/18 10:45:07;;;;;;;11.98;2.80;;;;;;;16.98;42.54;104346.72;5075145;28;20048;-58
2022/03/18 10:47:36;;;;;;;12.18;3.70;;;;;;;16.91;42.15;104343.44;5075261;28;20476;-58
2022/03/18 10:50:23;;;;;;;9.95;3.03;;;;;;;16.85;42.17;104360.44;5075431;28;20044;-57
2022/03/18 10:53:07;;;;;;;10.18;2.95;;;;;;;16.69;42.71;104359.25;5074835;28;20047;-58
2022/03/18 10:55:36;;;;;;;10.05;3.55;;;;;;;17.14;40.82;104350.56;5074805;28;20044;-58
2022/03/18 10:58:08;;;;;;;9.60;3.17;;;;;;;16.96;41.65;104348.56;5073547;28;20526;-58
2022/03/18 11:00:40;;;;;;;11.95;3.33;;;;;;;17.04;41.63;104349.16;5074707;28;20479;-59
2022/03/18 11:03:09;;;;;;;11.45;3.35;;;;;;;17.31;41.80;104352.56;5074866;28;20049;-58
2022/03/18 11:05:40;;;;;;;7.10;2.88;;;;;;;17.53;40.73;104362.34;5073264;28;20143;-58
2022/03/18 11:08:12;;;;;;;7.18;2.75;;;;;;;17.33;40.84;104361.34;5074802;28;20044;-58
2022/03/18 11:13:30;;;;;;;8.05;2.25;;;;;;;17.73;39.83;104364.25;5074681;28;20483;-57
2022/03/18 11:15:58;;;;;;;8.90;3.00;;;;;;;17.94;39.67;104361.66;5074718;28;20056;-57
2022/03/18 11:18:29;;;;;;;11.15;3.35;;;;;;;18.20;38.92;104356.13;5074594;28;20475;-57
2022/03/18 11:20:57;;;;;;;6.75;2.72;;;;;;;18.29;38.86;104364.66;5074786;28;20517;-56
2022/03/18 11:23:28;;;;;;;7.90;3.03;;;;;;;18.07;39.34;104361.09;5074517;28;20044;-57
2022/03/18 11:26:00;;;;;;;8.27;3.10;;;;;;;18.18;39.44;104357.97;5074619;28;20422;-58
2022/03/18 11:28:29;;;;;;;8.20;2.67;;;;;;;18.46;39.20;104348.81;5073238;28;20048;-58
2022/03/18 11:31:05;;;;;;;6.85;3.05;;;;;;;18.97;37.95;104348.38;5074586;28;20044;-58
2022/03/18 11:33:35;;;;;;;7.35;3.00;;;;;;;18.81;38.87;104351.69;5074502;28;20063;-58
2022/03/18 11:36:24;;;;;;;9.13;2.90;;;;;;;18.56;38.16;104357.25;5074569;28;20045;-58
2022/03/18 11:39:06;;;;;;;8.57;3.20;;;;;;;18.42;38.77;104342.72;5074593;28;20054;-57
2022/03/18 11:41:49;;;;;;;8.55;2.80;;;;;;;18.42;38.82;104347.22;5074355;28;20377;-58
2022/03/18 11:44:35;;;;;;;;;;;;;;;18.62;38.79;104350.78;5074790;28;20629;-58
2022/03/18 11:47:34;;;;;;;9.15;2.85;;;;;;;18.26;38.88;104356.81;5074366;28;20375;-58
2022/03/18 11:50:40;;;;;;;6.68;2.97;;;;;;;18.95;38.52;104342.22;5073460;28;20442;-58
2022/03/18 11:53:13;;;;;;;13.85;3.30;;;;;;;19.15;38.27;104350.16;5072845;28;20131;-58